• Join FlightAware (Why Join?)
  • Login
  • US Flag 
06:42AM EDT


 

Airport Tracker/Info


-or-


 

Live Flight TrackerFlight Track Log ✈ CTL16 ✈ 09-Apr-2013 ✈ KHAO - KBKL

Flight Track Log - Related Links

Times and Time Zones

All times are in EDT time to prevent confusion due to time zone crossing. See the CTL16 flight status page for this flight to view local times or setup timezone preferences in your user account.

Time Position Orientation Groundspeed Altitude Reporting Facility
EDT Latitude Longitude Course Direction KTS MPH feet Rate Location/Type
08:33PM 39.4333 -84.4167 45° Northeast 191 220 2,000  Level Cincinnati TRACON
08:34PM 39.4811 -84.3550 45° Northeast 185 213 2,400 240 Climbing Indianapolis Center
08:35PM 39.5300 -84.2928 44° Northeast 197 227 2,600 300 Climbing Indianapolis Center
08:36PM 39.5589 -84.2544 46° Northeast 195 224 3,100 480 Climbing Indianapolis Center
08:37PM 39.5964 -84.2033 46° Northeast 194 223 3,500 360 Climbing Indianapolis Center
08:38PM 39.6325 -84.1531 47° Northeast 192 221 3,900 540 Climbing Indianapolis Center
08:39PM 39.6689 -84.1094 43° Northeast 184 212 4,700 780 Climbing Indianapolis Center
08:40PM 39.7044 -84.0661 43° Northeast 177 204 5,500 660 Climbing Indianapolis Center
08:41PM 39.7397 -84.0203 45° Northeast 176 203 6,100 480 Climbing Indianapolis Center
08:42PM 39.7758 -83.9736 45° Northeast 179 206 6,600 480 Climbing Indianapolis Center
08:43PM 39.8167 -83.9319 38° Northeast 182 209 7,100 180 Climbing Indianapolis Center
08:44PM 39.8608 -83.8844 40° Northeast 192 221 7,000 -60 Descending Indianapolis Center
08:45PM 39.9042 -83.8306 44° Northeast 203 234 7,000  Level Indianapolis Center
08:46PM 39.9511 -83.7836 37° Northeast 209 241 7,000  Level Indianapolis Center
08:47PM 39.9950 -83.7283 44° Northeast 212 244 7,000  Level Indianapolis Center
08:48PM 40.0375 -83.6719 45° Northeast 214 246 7,000  Level Indianapolis Center
08:49PM 40.0872 -83.6075 45° Northeast 213 245 7,000  Level Indianapolis Center
08:50PM 40.1247 -83.5569 46° Northeast 211 243 7,000  Level Indianapolis Center
08:51PM 40.1689 -83.4967 46° Northeast 215 247 7,100  Climbing Indianapolis Center
08:52PM 40.2144 -83.4411 43° Northeast 213 245 7,100 -60 Level Indianapolis Center
08:53PM 40.2467 -83.4025 42° Northeast 213 245 7,000 -120 Descending Indianapolis Center
08:53PM 40.2581 -83.3869 46° Northeast 213 245 7,000  Level Indianapolis Center
08:54PM 40.2978 -83.3350 45° Northeast 215 247 7,000  Level Indianapolis Center
08:55PM 40.3392 -83.2797 46° Northeast 211 243 7,000  Level Indianapolis Center
08:56PM 40.3833 -83.2192 46° Northeast 210 242 7,100  Climbing Indianapolis Center
08:57PM 40.4239 -83.1647 46° Northeast 208 239 7,000 -60 Descending Indianapolis Center
08:58PM 40.4653 -83.1111 45° Northeast 207 238 7,000  Level Indianapolis Center
08:59PM 40.5067 -83.0597 43° Northeast 203 234 7,000  Level Indianapolis Center
09:00PM 40.5497 -82.9981 47° Northeast 205 236 7,000 -60 Level Indianapolis Center
09:01PM 40.5939 -82.9514 39° Northeast 202 232 6,900 -240 Descending Indianapolis Center
09:02PM 40.6364 -82.8992 43° Northeast 206 237 6,600 -420 Descending Indianapolis Center
09:03PM 40.6778 -82.8414 47° Northeast 213 245 6,100 -540 Descending Indianapolis Center
09:05PM 40.7206 -82.7825 46° Northeast 218 251 5,600 -600 Descending Indianapolis Center
09:06PM 40.7639 -82.7219 47° Northeast 223 257 5,000 -300 Descending Indianapolis Center
09:07PM 40.8042 -82.6669 46° Northeast 211 243 5,000  Level Indianapolis Center
09:07PM 40.8389 -82.6222 44° Northeast 203 234 5,000  Level Cleveland Center
09:09PM 40.8903 -82.5497 47° Northeast 202 232 5,000  Level Cleveland Center